sensor_id;sensor_type;location;lat;lon;timestamp;P1;durP1;ratioP1;P2;durP2;ratioP2
37903;SDS011;23738;50.422;18.758;2022-11-18T00:00:56;19.90;;;16.00;;
37903;SDS011;23738;50.422;18.758;2022-11-18T00:03:34;22.50;;;15.13;;
37903;SDS011;23738;50.422;18.758;2022-11-18T00:06:01;18.37;;;13.53;;
37903;SDS011;23738;50.422;18.758;2022-11-18T00:08:27;17.00;;;12.80;;
37903;SDS011;23738;50.422;18.758;2022-11-18T00:10:53;17.07;;;12.20;;
37903;SDS011;23738;50.422;18.758;2022-11-18T00:13:19;19.70;;;13.53;;
37903;SDS011;23738;50.422;18.758;2022-11-18T00:16:04;17.57;;;13.40;;
37903;SDS011;23738;50.422;18.758;2022-11-18T00:18:36;18.20;;;13.63;;
37903;SDS011;23738;50.422;18.758;2022-11-18T00:21:04;15.67;;;11.57;;
37903;SDS011;23738;50.422;18.758;2022-11-18T00:23:36;16.50;;;12.03;;
37903;SDS011;23738;50.422;18.758;2022-11-18T00:26:04;14.90;;;11.57;;
37903;SDS011;23738;50.422;18.758;2022-11-18T00:28:38;13.67;;;10.67;;
37903;SDS011;23738;50.422;18.758;2022-11-18T00:31:06;11.80;;;9.93;;
37903;SDS011;23738;50.422;18.758;2022-11-18T00:33:35;12.30;;;9.70;;
37903;SDS011;23738;50.422;18.758;2022-11-18T00:36:02;12.73;;;10.87;;
37903;SDS011;23738;50.422;18.758;2022-11-18T00:38:31;14.67;;;10.80;;
37903;SDS011;23738;50.422;18.758;2022-11-18T00:41:03;16.53;;;10.83;;
37903;SDS011;23738;50.422;18.758;2022-11-18T00:43:29;15.70;;;10.20;;
37903;SDS011;23738;50.422;18.758;2022-11-18T00:45:55;14.97;;;11.33;;
37903;SDS011;23738;50.422;18.758;2022-11-18T00:48:22;12.33;;;9.50;;
37903;SDS011;23738;50.422;18.758;2022-11-18T00:50:49;11.93;;;9.63;;
37903;SDS011;23738;50.422;18.758;2022-11-18T00:53:17;12.73;;;9.03;;
37903;SDS011;23738;50.422;18.758;2022-11-18T00:55:44;9.77;;;8.57;;
37903;SDS011;23738;50.422;18.758;2022-11-18T00:58:10;10.50;;;8.57;;
37903;SDS011;23738;50.422;18.758;2022-11-18T01:00:38;9.60;;;8.60;;
37903;SDS011;23738;50.422;18.758;2022-11-18T01:03:06;10.43;;;8.93;;
37903;SDS011;23738;50.422;18.758;2022-11-18T01:05:33;12.30;;;9.23;;
37903;SDS011;23738;50.422;18.758;2022-11-18T01:08:00;11.73;;;9.07;;
37903;SDS011;23738;50.422;18.758;2022-11-18T01:10:25;10.43;;;8.90;;
37903;SDS011;23738;50.422;18.758;2022-11-18T01:12:51;11.73;;;9.53;;
37903;SDS011;23738;50.422;18.758;2022-11-18T01:15:38;9.10;;;8.03;;
37903;SDS011;23738;50.422;18.758;2022-11-18T01:18:06;10.00;;;8.07;;
37903;SDS011;23738;50.422;18.758;2022-11-18T01:20:33;11.20;;;8.30;;
37903;SDS011;23738;50.422;18.758;2022-11-18T01:22:59;11.00;;;7.90;;
37903;SDS011;23738;50.422;18.758;2022-11-18T01:25:25;11.10;;;8.17;;
37903;SDS011;23738;50.422;18.758;2022-11-18T01:27:52;10.47;;;7.80;;
37903;SDS011;23738;50.422;18.758;2022-11-18T01:30:18;7.80;;;7.00;;
37903;SDS011;23738;50.422;18.758;2022-11-18T01:32:44;8.60;;;7.00;;
37903;SDS011;23738;50.422;18.758;2022-11-18T01:35:10;9.57;;;7.60;;
37903;SDS011;23738;50.422;18.758;2022-11-18T01:37:37;7.40;;;5.93;;
37903;SDS011;23738;50.422;18.758;2022-11-18T01:40:04;9.47;;;7.63;;
37903;SDS011;23738;50.422;18.758;2022-11-18T01:42:32;8.80;;;6.97;;
37903;SDS011;23738;50.422;18.758;2022-11-18T01:48:00;8.30;;;7.23;;
37903;SDS011;23738;50.422;18.758;2022-11-18T01:50:51;9.47;;;7.23;;
37903;SDS011;23738;50.422;18.758;2022-11-18T01:53:33;8.57;;;6.33;;
37903;SDS011;23738;50.422;18.758;2022-11-18T01:56:05;8.80;;;7.03;;
37903;SDS011;23738;50.422;18.758;2022-11-18T01:58:35;8.73;;;7.57;;
37903;SDS011;23738;50.422;18.758;2022-11-18T02:01:08;9.80;;;6.80;;
37903;SDS011;23738;50.422;18.758;2022-11-18T02:03:34;8.70;;;6.13;;
37903;SDS011;23738;50.422;18.758;2022-11-18T02:06:00;8.33;;;6.17;;
37903;SDS011;23738;50.422;18.758;2022-11-18T02:08:28;7.13;;;5.80;;
37903;SDS011;23738;50.422;18.758;2022-11-18T02:10:55;7.87;;;6.90;;
37903;SDS011;23738;50.422;18.758;2022-11-18T02:13:20;8.87;;;7.27;;
37903;SDS011;23738;50.422;18.758;2022-11-18T02:15:52;7.77;;;6.93;;
37903;SDS011;23738;50.422;18.758;2022-11-18T02:18:44;6.97;;;6.27;;
37903;SDS011;23738;50.422;18.758;2022-11-18T02:21:36;8.33;;;6.63;;
37903;SDS011;23738;50.422;18.758;2022-11-18T02:27:30;7.67;;;6.83;;
37903;SDS011;23738;50.422;18.758;2022-11-18T02:30:21;9.13;;;6.27;;
37903;SDS011;23738;50.422;18.758;2022-11-18T02:32:52;7.47;;;6.00;;
37903;SDS011;23738;50.422;18.758;2022-11-18T02:35:32;7.53;;;5.70;;
37903;SDS011;23738;50.422;18.758;2022-11-18T02:38:12;6.25;;;5.53;;
37903;SDS011;23738;50.422;18.758;2022-11-18T02:40:48;6.93;;;6.10;;
37903;SDS011;23738;50.422;18.758;2022-11-18T02:43:39;6.45;;;5.80;;
37903;SDS011;23738;50.422;18.758;2022-11-18T02:46:08;8.50;;;6.33;;
37903;SDS011;23738;50.422;18.758;2022-11-18T02:48:40;7.63;;;6.77;;
37903;SDS011;23738;50.422;18.758;2022-11-18T02:51:10;7.07;;;6.37;;
37903;SDS011;23738;50.422;18.758;2022-11-18T02:53:39;7.03;;;5.63;;
37903;SDS011;23738;50.422;18.758;2022-11-18T02:56:06;6.93;;;5.83;;
37903;SDS011;23738;50.422;18.758;2022-11-18T02:58:33;8.00;;;5.80;;
37903;SDS011;23738;50.422;18.758;2022-11-18T03:00:59;6.77;;;5.87;;
37903;SDS011;23738;50.422;18.758;2022-11-18T03:11:54;6.30;;;5.43;;
37903;SDS011;23738;50.422;18.758;2022-11-18T03:23:09;7.77;;;6.67;;
37903;SDS011;23738;50.422;18.758;2022-11-18T03:25:58;8.17;;;6.20;;
37903;SDS011;23738;50.422;18.758;2022-11-18T03:31:32;7.43;;;6.67;;
37903;SDS011;23738;50.422;18.758;2022-11-18T03:34:10;7.57;;;6.77;;
37903;SDS011;23738;50.422;18.758;2022-11-18T03:36:49;9.07;;;6.73;;
37903;SDS011;23738;50.422;18.758;2022-11-18T03:39:18;7.70;;;6.60;;
37903;SDS011;23738;50.422;18.758;2022-11-18T03:41:52;10.10;;;7.27;;
37903;SDS011;23738;50.422;18.758;2022-11-18T03:44:23;7.40;;;6.60;;
37903;SDS011;23738;50.422;18.758;2022-11-18T03:46:50;7.83;;;7.00;;
37903;SDS011;23738;50.422;18.758;2022-11-18T03:49:24;8.07;;;7.10;;
37903;SDS011;23738;50.422;18.758;2022-11-18T03:52:01;8.90;;;7.67;;
37903;SDS011;23738;50.422;18.758;2022-11-18T03:54:32;8.77;;;7.83;;
37903;SDS011;23738;50.422;18.758;2022-11-18T03:57:09;9.47;;;7.33;;
37903;SDS011;23738;50.422;18.758;2022-11-18T03:59:47;8.10;;;7.15;;
37903;SDS011;23738;50.422;18.758;2022-11-18T04:02:24;7.60;;;6.13;;
37903;SDS011;23738;50.422;18.758;2022-11-18T04:04:53;7.40;;;6.20;;
37903;SDS011;23738;50.422;18.758;2022-11-18T04:07:41;6.93;;;6.23;;
37903;SDS011;23738;50.422;18.758;2022-11-18T04:13:17;6.63;;;5.27;;
37903;SDS011;23738;50.422;18.758;2022-11-18T04:15:52;7.53;;;6.43;;
37903;SDS011;23738;50.422;18.758;2022-11-18T04:18:18;7.10;;;6.03;;
37903;SDS011;23738;50.422;18.758;2022-11-18T04:20:44;7.33;;;6.60;;
37903;SDS011;23738;50.422;18.758;2022-11-18T04:23:10;7.20;;;6.50;;
37903;SDS011;23738;50.422;18.758;2022-11-18T04:25:36;9.17;;;6.83;;
37903;SDS011;23738;50.422;18.758;2022-11-18T04:28:03;7.07;;;6.33;;
37903;SDS011;23738;50.422;18.758;2022-11-18T04:30:29;7.77;;;6.97;;
37903;SDS011;23738;50.422;18.758;2022-11-18T04:32:56;8.13;;;6.53;;
37903;SDS011;23738;50.422;18.758;2022-11-18T04:35:22;6.97;;;6.27;;
37903;SDS011;23738;50.422;18.758;2022-11-18T04:37:49;8.63;;;7.33;;
37903;SDS011;23738;50.422;18.758;2022-11-18T04:40:15;8.10;;;6.97;;
37903;SDS011;23738;50.422;18.758;2022-11-18T04:42:43;12.40;;;7.60;;
37903;SDS011;23738;50.422;18.758;2022-11-18T04:45:11;8.07;;;7.27;;
37903;SDS011;23738;50.422;18.758;2022-11-18T04:47:40;11.47;;;7.47;;
37903;SDS011;23738;50.422;18.758;2022-11-18T04:50:07;9.10;;;7.73;;
37903;SDS011;23738;50.422;18.758;2022-11-18T04:52:33;8.83;;;7.73;;
37903;SDS011;23738;50.422;18.758;2022-11-18T04:54:59;9.73;;;7.97;;
37903;SDS011;23738;50.422;18.758;2022-11-18T04:57:25;9.77;;;7.97;;
37903;SDS011;23738;50.422;18.758;2022-11-18T04:59:52;9.37;;;8.40;;
37903;SDS011;23738;50.422;18.758;2022-11-18T05:02:20;10.93;;;8.83;;
37903;SDS011;23738;50.422;18.758;2022-11-18T05:04:46;11.47;;;8.20;;
37903;SDS011;23738;50.422;18.758;2022-11-18T05:07:12;9.13;;;7.50;;
37903;SDS011;23738;50.422;18.758;2022-11-18T05:09:40;11.13;;;8.20;;
37903;SDS011;23738;50.422;18.758;2022-11-18T05:12:08;13.07;;;9.37;;
37903;SDS011;23738;50.422;18.758;2022-11-18T05:14:56;9.87;;;8.87;;
37903;SDS011;23738;50.422;18.758;2022-11-18T05:17:22;12.53;;;8.63;;
37903;SDS011;23738;50.422;18.758;2022-11-18T05:19:47;11.23;;;8.60;;
37903;SDS011;23738;50.422;18.758;2022-11-18T05:22:13;11.00;;;8.00;;
37903;SDS011;23738;50.422;18.758;2022-11-18T05:24:40;11.07;;;8.67;;
37903;SDS011;23738;50.422;18.758;2022-11-18T05:27:05;11.10;;;9.07;;
37903;SDS011;23738;50.422;18.758;2022-11-18T05:29:32;9.50;;;8.50;;
37903;SDS011;23738;50.422;18.758;2022-11-18T05:31:58;14.07;;;9.73;;
37903;SDS011;23738;50.422;18.758;2022-11-18T05:34:23;11.10;;;8.77;;
37903;SDS011;23738;50.422;18.758;2022-11-18T05:36:49;11.43;;;8.87;;
37903;SDS011;23738;50.422;18.758;2022-11-18T05:39:15;11.33;;;8.37;;
37903;SDS011;23738;50.422;18.758;2022-11-18T05:41:41;9.80;;;8.00;;
37903;SDS011;23738;50.422;18.758;2022-11-18T05:44:25;9.27;;;7.60;;
37903;SDS011;23738;50.422;18.758;2022-11-18T05:46:51;10.43;;;9.00;;
37903;SDS011;23738;50.422;18.758;2022-11-18T05:49:16;11.70;;;8.73;;
37903;SDS011;23738;50.422;18.758;2022-11-18T05:51:42;17.07;;;9.53;;
37903;SDS011;23738;50.422;18.758;2022-11-18T05:54:08;10.63;;;9.53;;
37903;SDS011;23738;50.422;18.758;2022-11-18T05:56:37;9.53;;;8.53;;
37903;SDS011;23738;50.422;18.758;2022-11-18T05:59:08;14.27;;;9.17;;
37903;SDS011;23738;50.422;18.758;2022-11-18T06:01:39;11.47;;;9.93;;
37903;SDS011;23738;50.422;18.758;2022-11-18T06:04:13;13.20;;;11.40;;
37903;SDS011;23738;50.422;18.758;2022-11-18T06:06:44;10.90;;;9.77;;
37903;SDS011;23738;50.422;18.758;2022-11-18T06:09:14;15.23;;;10.83;;
37903;SDS011;23738;50.422;18.758;2022-11-18T06:11:44;13.00;;;11.03;;
37903;SDS011;23738;50.422;18.758;2022-11-18T06:14:15;14.00;;;10.60;;
37903;SDS011;23738;50.422;18.758;2022-11-18T06:16:46;13.13;;;10.17;;
37903;SDS011;23738;50.422;18.758;2022-11-18T06:19:14;11.23;;;9.83;;
37903;SDS011;23738;50.422;18.758;2022-11-18T06:21:41;15.50;;;11.40;;
37903;SDS011;23738;50.422;18.758;2022-11-18T06:24:08;14.77;;;11.17;;
37903;SDS011;23738;50.422;18.758;2022-11-18T06:26:35;11.53;;;10.33;;
37903;SDS011;23738;50.422;18.758;2022-11-18T06:29:04;14.67;;;11.00;;
37903;SDS011;23738;50.422;18.758;2022-11-18T06:31:32;17.93;;;11.10;;
37903;SDS011;23738;50.422;18.758;2022-11-18T06:33:58;14.37;;;11.00;;
37903;SDS011;23738;50.422;18.758;2022-11-18T06:36:24;14.20;;;11.93;;
37903;SDS011;23738;50.422;18.758;2022-11-18T06:38:49;15.33;;;12.63;;
37903;SDS011;23738;50.422;18.758;2022-11-18T06:41:15;19.57;;;14.63;;
37903;SDS011;23738;50.422;18.758;2022-11-18T06:43:41;21.37;;;14.10;;
37903;SDS011;23738;50.422;18.758;2022-11-18T06:46:08;16.07;;;12.33;;
37903;SDS011;23738;50.422;18.758;2022-11-18T06:48:55;21.53;;;14.27;;
37903;SDS011;23738;50.422;18.758;2022-11-18T06:51:21;25.37;;;13.93;;
37903;SDS011;23738;50.422;18.758;2022-11-18T06:53:48;23.60;;;14.23;;
37903;SDS011;23738;50.422;18.758;2022-11-18T06:56:15;37.60;;;19.00;;
37903;SDS011;23738;50.422;18.758;2022-11-18T06:58:42;30.17;;;16.70;;
37903;SDS011;23738;50.422;18.758;2022-11-18T07:01:18;30.87;;;17.33;;
37903;SDS011;23738;50.422;18.758;2022-11-18T07:03:47;31.87;;;16.33;;
37903;SDS011;23738;50.422;18.758;2022-11-18T07:06:14;29.47;;;16.43;;
37903;SDS011;23738;50.422;18.758;2022-11-18T07:08:42;28.63;;;15.97;;
37903;SDS011;23738;50.422;18.758;2022-11-18T07:11:10;35.80;;;18.43;;
37903;SDS011;23738;50.422;18.758;2022-11-18T07:13:38;20.93;;;15.23;;
37903;SDS011;23738;50.422;18.758;2022-11-18T07:16:06;28.10;;;15.93;;
37903;SDS011;23738;50.422;18.758;2022-11-18T07:18:35;28.47;;;16.90;;
37903;SDS011;23738;50.422;18.758;2022-11-18T07:21:03;30.30;;;16.47;;
37903;SDS011;23738;50.422;18.758;2022-11-18T07:23:32;33.13;;;18.10;;
37903;SDS011;23738;50.422;18.758;2022-11-18T07:25:59;31.57;;;17.23;;
37903;SDS011;23738;50.422;18.758;2022-11-18T07:28:25;28.27;;;17.63;;
37903;SDS011;23738;50.422;18.758;2022-11-18T07:30:51;28.57;;;15.27;;
37903;SDS011;23738;50.422;18.758;2022-11-18T07:33:17;28.17;;;15.63;;
37903;SDS011;23738;50.422;18.758;2022-11-18T07:35:43;28.83;;;15.13;;
37903;SDS011;23738;50.422;18.758;2022-11-18T07:38:09;26.13;;;16.87;;
37903;SDS011;23738;50.422;18.758;2022-11-18T07:40:34;33.37;;;17.80;;
37903;SDS011;23738;50.422;18.758;2022-11-18T07:43:00;30.13;;;18.03;;
37903;SDS011;23738;50.422;18.758;2022-11-18T07:45:26;30.90;;;17.57;;
37903;SDS011;23738;50.422;18.758;2022-11-18T07:47:51;26.60;;;18.00;;
37903;SDS011;23738;50.422;18.758;2022-11-18T07:50:17;34.67;;;18.20;;
37903;SDS011;23738;50.422;18.758;2022-11-18T07:52:43;33.90;;;17.47;;
37903;SDS011;23738;50.422;18.758;2022-11-18T07:55:09;31.93;;;16.17;;
37903;SDS011;23738;50.422;18.758;2022-11-18T07:57:34;29.33;;;16.73;;
37903;SDS011;23738;50.422;18.758;2022-11-18T08:00:00;26.83;;;15.87;;
37903;SDS011;23738;50.422;18.758;2022-11-18T08:02:28;21.30;;;15.07;;
37903;SDS011;23738;50.422;18.758;2022-11-18T08:04:54;29.20;;;16.00;;
37903;SDS011;23738;50.422;18.758;2022-11-18T08:07:19;26.90;;;14.80;;
37903;SDS011;23738;50.422;18.758;2022-11-18T08:09:45;24.13;;;14.53;;
37903;SDS011;23738;50.422;18.758;2022-11-18T08:12:11;16.67;;;12.80;;
37903;SDS011;23738;50.422;18.758;2022-11-18T08:14:37;24.77;;;15.20;;
37903;SDS011;23738;50.422;18.758;2022-11-18T08:17:02;23.17;;;16.43;;
37903;SDS011;23738;50.422;18.758;2022-11-18T08:19:28;23.77;;;14.17;;
37903;SDS011;23738;50.422;18.758;2022-11-18T08:21:54;27.37;;;14.93;;
37903;SDS011;23738;50.422;18.758;2022-11-18T08:24:19;21.73;;;13.83;;
37903;SDS011;23738;50.422;18.758;2022-11-18T08:26:45;21.00;;;14.80;;
37903;SDS011;23738;50.422;18.758;2022-11-18T08:29:11;19.87;;;13.37;;
37903;SDS011;23738;50.422;18.758;2022-11-18T08:31:37;22.87;;;14.93;;
37903;SDS011;23738;50.422;18.758;2022-11-18T08:34:03;24.73;;;15.40;;
37903;SDS011;23738;50.422;18.758;2022-11-18T08:36:36;24.47;;;15.03;;
37903;SDS011;23738;50.422;18.758;2022-11-18T08:39:02;21.20;;;13.57;;
37903;SDS011;23738;50.422;18.758;2022-11-18T08:41:32;18.70;;;14.63;;
37903;SDS011;23738;50.422;18.758;2022-11-18T08:44:08;21.93;;;16.07;;
37903;SDS011;23738;50.422;18.758;2022-11-18T08:46:37;20.90;;;15.03;;
37903;SDS011;23738;50.422;18.758;2022-11-18T08:49:03;26.77;;;15.43;;
37903;SDS011;23738;50.422;18.758;2022-11-18T08:51:29;29.33;;;17.03;;
37903;SDS011;23738;50.422;18.758;2022-11-18T08:53:57;33.93;;;17.37;;
37903;SDS011;23738;50.422;18.758;2022-11-18T08:56:23;32.07;;;18.00;;
37903;SDS011;23738;50.422;18.758;2022-11-18T08:58:50;39.47;;;19.43;;
37903;SDS011;23738;50.422;18.758;2022-11-18T09:01:16;36.30;;;20.07;;
37903;SDS011;23738;50.422;18.758;2022-11-18T09:03:42;45.23;;;24.73;;
37903;SDS011;23738;50.422;18.758;2022-11-18T09:08:39;38.30;;;20.63;;
37903;SDS011;23738;50.422;18.758;2022-11-18T09:11:06;36.63;;;20.43;;
37903;SDS011;23738;50.422;18.758;2022-11-18T09:13:35;26.60;;;16.57;;
37903;SDS011;23738;50.422;18.758;2022-11-18T09:16:01;30.50;;;17.27;;
37903;SDS011;23738;50.422;18.758;2022-11-18T09:18:28;22.97;;;15.27;;
37903;SDS011;23738;50.422;18.758;2022-11-18T09:20:54;34.10;;;17.43;;
37903;SDS011;23738;50.422;18.758;2022-11-18T09:23:22;34.47;;;17.67;;
37903;SDS011;23738;50.422;18.758;2022-11-18T09:25:47;25.63;;;16.57;;
37903;SDS011;23738;50.422;18.758;2022-11-18T09:28:14;34.00;;;17.95;;
37903;SDS011;23738;50.422;18.758;2022-11-18T09:30:40;32.60;;;16.70;;
37903;SDS011;23738;50.422;18.758;2022-11-18T09:33:06;28.23;;;16.60;;
37903;SDS011;23738;50.422;18.758;2022-11-18T09:35:31;28.63;;;15.73;;
37903;SDS011;23738;50.422;18.758;2022-11-18T09:37:58;25.27;;;15.67;;
37903;SDS011;23738;50.422;18.758;2022-11-18T09:40:23;28.30;;;16.63;;
37903;SDS011;23738;50.422;18.758;2022-11-18T09:42:56;22.97;;;15.33;;
37903;SDS011;23738;50.422;18.758;2022-11-18T09:45:27;25.20;;;14.97;;
37903;SDS011;23738;50.422;18.758;2022-11-18T09:48:09;28.17;;;16.67;;
37903;SDS011;23738;50.422;18.758;2022-11-18T09:50:42;25.30;;;17.00;;
37903;SDS011;23738;50.422;18.758;2022-11-18T09:53:21;25.83;;;15.83;;
37903;SDS011;23738;50.422;18.758;2022-11-18T09:55:49;19.47;;;13.87;;
37903;SDS011;23738;50.422;18.758;2022-11-18T09:58:17;22.00;;;15.10;;
37903;SDS011;23738;50.422;18.758;2022-11-18T10:00:57;22.90;;;15.00;;
37903;SDS011;23738;50.422;18.758;2022-11-18T10:03:26;48.20;;;30.03;;
37903;SDS011;23738;50.422;18.758;2022-11-18T10:08:44;30.80;;;18.33;;
37903;SDS011;23738;50.422;18.758;2022-11-18T10:11:24;23.40;;;16.27;;
37903;SDS011;23738;50.422;18.758;2022-11-18T10:17:05;50.40;;;29.17;;
37903;SDS011;23738;50.422;18.758;2022-11-18T10:20:37;66.80;;;36.67;;
37903;SDS011;23738;50.422;18.758;2022-11-18T10:22:30;47.40;;;26.97;;
37903;SDS011;23738;50.422;18.758;2022-11-18T10:25:00;33.43;;;20.07;;
37903;SDS011;23738;50.422;18.758;2022-11-18T10:27:32;30.33;;;18.33;;
37903;SDS011;23738;50.422;18.758;2022-11-18T10:30:13;27.20;;;17.80;;
37903;SDS011;23738;50.422;18.758;2022-11-18T10:32:58;33.00;;;18.37;;
37903;SDS011;23738;50.422;18.758;2022-11-18T10:35:36;28.43;;;16.43;;
37903;SDS011;23738;50.422;18.758;2022-11-18T10:38:15;27.30;;;17.13;;
37903;SDS011;23738;50.422;18.758;2022-11-18T10:41:02;32.80;;;17.53;;
37903;SDS011;23738;50.422;18.758;2022-11-18T10:51:44;36.57;;;17.97;;
37903;SDS011;23738;50.422;18.758;2022-11-18T10:56:48;33.63;;;17.30;;
37903;SDS011;23738;50.422;18.758;2022-11-18T10:59:27;32.00;;;17.80;;
37903;SDS011;23738;50.422;18.758;2022-11-18T11:02:17;27.13;;;15.93;;
37903;SDS011;23738;50.422;18.758;2022-11-18T11:05:02;31.57;;;18.00;;
37903;SDS011;23738;50.422;18.758;2022-11-18T11:07:59;31.10;;;17.43;;
37903;SDS011;23738;50.422;18.758;2022-11-18T11:10:32;27.63;;;17.57;;
37903;SDS011;23738;50.422;18.758;2022-11-18T11:13:03;24.77;;;16.53;;
37903;SDS011;23738;50.422;18.758;2022-11-18T11:15:34;26.80;;;16.77;;
37903;SDS011;23738;50.422;18.758;2022-11-18T11:18:26;27.57;;;14.30;;
37903;SDS011;23738;50.422;18.758;2022-11-18T11:21:16;25.40;;;15.50;;
37903;SDS011;23738;50.422;18.758;2022-11-18T11:23:44;28.47;;;15.83;;
37903;SDS011;23738;50.422;18.758;2022-11-18T11:32:04;34.93;;;16.77;;
37903;SDS011;23738;50.422;18.758;2022-11-18T11:34:53;31.77;;;17.33;;
37903;SDS011;23738;50.422;18.758;2022-11-18T11:49:05;22.53;;;15.90;;
37903;SDS011;23738;50.422;18.758;2022-11-18T11:52:22;30.27;;;15.80;;
37903;SDS011;23738;50.422;18.758;2022-11-18T11:54:51;24.30;;;16.30;;
37903;SDS011;23738;50.422;18.758;2022-11-18T12:00:08;23.03;;;14.43;;
37903;SDS011;23738;50.422;18.758;2022-11-18T12:05:44;24.17;;;15.30;;
37903;SDS011;23738;50.422;18.758;2022-11-18T12:11:11;24.27;;;15.87;;
37903;SDS011;23738;50.422;18.758;2022-11-18T12:14:10;23.43;;;14.33;;
37903;SDS011;23738;50.422;18.758;2022-11-18T12:19:21;21.33;;;15.60;;
37903;SDS011;23738;50.422;18.758;2022-11-18T12:24:36;27.27;;;14.83;;
37903;SDS011;23738;50.422;18.758;2022-11-18T12:29:43;22.33;;;15.33;;
37903;SDS011;23738;50.422;18.758;2022-11-18T12:32:29;21.90;;;14.40;;
37903;SDS011;23738;50.422;18.758;2022-11-18T12:40:02;20.87;;;15.03;;
37903;SDS011;23738;50.422;18.758;2022-11-18T12:42:39;25.90;;;16.47;;
37903;SDS011;23738;50.422;18.758;2022-11-18T12:53:40;21.73;;;15.97;;
37903;SDS011;23738;50.422;18.758;2022-11-18T12:58:54;23.37;;;15.43;;
37903;SDS011;23738;50.422;18.758;2022-11-18T13:01:20;19.70;;;14.23;;
37903;SDS011;23738;50.422;18.758;2022-11-18T13:03:57;25.97;;;15.57;;
37903;SDS011;23738;50.422;18.758;2022-11-18T13:06:40;19.83;;;14.47;;
37903;SDS011;23738;50.422;18.758;2022-11-18T13:09:12;24.87;;;15.60;;
37903;SDS011;23738;50.422;18.758;2022-11-18T13:11:45;21.40;;;16.13;;
37903;SDS011;23738;50.422;18.758;2022-11-18T13:14:33;23.60;;;16.23;;
37903;SDS011;23738;50.422;18.758;2022-11-18T13:17:24;23.30;;;16.40;;
37903;SDS011;23738;50.422;18.758;2022-11-18T13:20:18;23.60;;;17.50;;
37903;SDS011;23738;50.422;18.758;2022-11-18T13:22:59;21.70;;;16.30;;
37903;SDS011;23738;50.422;18.758;2022-11-18T13:26:04;23.73;;;17.40;;
37903;SDS011;23738;50.422;18.758;2022-11-18T13:29:07;25.60;;;16.90;;
37903;SDS011;23738;50.422;18.758;2022-11-18T13:32:00;24.10;;;17.80;;
37903;SDS011;23738;50.422;18.758;2022-11-18T13:34:51;38.50;;;20.07;;
37903;SDS011;23738;50.422;18.758;2022-11-18T13:37:24;30.33;;;18.93;;
37903;SDS011;23738;50.422;18.758;2022-11-18T13:39:53;30.17;;;18.20;;
37903;SDS011;23738;50.422;18.758;2022-11-18T13:42:20;31.17;;;19.63;;
37903;SDS011;23738;50.422;18.758;2022-11-18T13:52:49;37.73;;;22.73;;
37903;SDS011;23738;50.422;18.758;2022-11-18T13:55:37;36.07;;;19.37;;
37903;SDS011;23738;50.422;18.758;2022-11-18T14:01:04;27.87;;;18.17;;
37903;SDS011;23738;50.422;18.758;2022-11-18T14:03:47;35.93;;;19.67;;
37903;SDS011;23738;50.422;18.758;2022-11-18T14:06:26;38.87;;;21.67;;
37903;SDS011;23738;50.422;18.758;2022-11-18T14:09:04;35.03;;;21.17;;
37903;SDS011;23738;50.422;18.758;2022-11-18T14:12:05;31.40;;;18.30;;
37903;SDS011;23738;50.422;18.758;2022-11-18T14:14:39;26.10;;;17.20;;
37903;SDS011;23738;50.422;18.758;2022-11-18T14:17:20;35.53;;;21.23;;
37903;SDS011;23738;50.422;18.758;2022-11-18T14:19:49;28.63;;;18.00;;
37903;SDS011;23738;50.422;18.758;2022-11-18T14:22:19;31.87;;;19.87;;
37903;SDS011;23738;50.422;18.758;2022-11-18T14:25:00;33.10;;;19.83;;
37903;SDS011;23738;50.422;18.758;2022-11-18T14:27:50;29.27;;;19.87;;
37903;SDS011;23738;50.422;18.758;2022-11-18T14:35:53;28.07;;;17.07;;
37903;SDS011;23738;50.422;18.758;2022-11-18T14:41:11;26.37;;;15.60;;
37903;SDS011;23738;50.422;18.758;2022-11-18T14:43:41;24.27;;;15.83;;
37903;SDS011;23738;50.422;18.758;2022-11-18T14:46:15;30.97;;;17.80;;
37903;SDS011;23738;50.422;18.758;2022-11-18T14:48:44;30.27;;;17.40;;
37903;SDS011;23738;50.422;18.758;2022-11-18T14:51:11;30.20;;;16.97;;
37903;SDS011;23738;50.422;18.758;2022-11-18T14:53:38;26.40;;;17.10;;
37903;SDS011;23738;50.422;18.758;2022-11-18T14:56:07;31.30;;;16.83;;
37903;SDS011;23738;50.422;18.758;2022-11-18T14:58:42;28.93;;;17.10;;
37903;SDS011;23738;50.422;18.758;2022-11-18T15:01:11;27.97;;;15.80;;
37903;SDS011;23738;50.422;18.758;2022-11-18T15:03:37;27.17;;;16.87;;
37903;SDS011;23738;50.422;18.758;2022-11-18T15:06:08;26.50;;;15.53;;
37903;SDS011;23738;50.422;18.758;2022-11-18T15:08:44;26.47;;;16.90;;
37903;SDS011;23738;50.422;18.758;2022-11-18T15:11:13;31.63;;;17.57;;
37903;SDS011;23738;50.422;18.758;2022-11-18T15:13:39;28.97;;;18.40;;
37903;SDS011;23738;50.422;18.758;2022-11-18T15:18:49;38.83;;;19.17;;
37903;SDS011;23738;50.422;18.758;2022-11-18T15:21:18;27.50;;;16.83;;
37903;SDS011;23738;50.422;18.758;2022-11-18T15:23:44;26.17;;;16.23;;
37903;SDS011;23738;50.422;18.758;2022-11-18T15:26:15;21.50;;;14.60;;
37903;SDS011;23738;50.422;18.758;2022-11-18T15:28:47;24.13;;;15.83;;
37903;SDS011;23738;50.422;18.758;2022-11-18T15:31:14;21.17;;;14.53;;
37903;SDS011;23738;50.422;18.758;2022-11-18T15:33:42;31.17;;;17.57;;
37903;SDS011;23738;50.422;18.758;2022-11-18T15:36:12;26.33;;;16.03;;
37903;SDS011;23738;50.422;18.758;2022-11-18T15:38:41;26.13;;;17.00;;
37903;SDS011;23738;50.422;18.758;2022-11-18T15:41:12;36.33;;;18.70;;
37903;SDS011;23738;50.422;18.758;2022-11-18T15:43:50;33.83;;;19.60;;
37903;SDS011;23738;50.422;18.758;2022-11-18T15:46:18;35.50;;;17.77;;
37903;SDS011;23738;50.422;18.758;2022-11-18T15:48:46;45.00;;;22.23;;
37903;SDS011;23738;50.422;18.758;2022-11-18T15:51:17;42.60;;;20.83;;
37903;SDS011;23738;50.422;18.758;2022-11-18T15:53:44;30.93;;;21.23;;
37903;SDS011;23738;50.422;18.758;2022-11-18T16:01:40;31.55;;;18.48;;
37903;SDS011;23738;50.422;18.758;2022-11-18T16:04:13;31.10;;;18.73;;
37903;SDS011;23738;50.422;18.758;2022-11-18T16:06:42;38.10;;;18.43;;
37903;SDS011;23738;50.422;18.758;2022-11-18T16:09:08;28.93;;;17.93;;
37903;SDS011;23738;50.422;18.758;2022-11-18T16:11:34;35.67;;;20.53;;
37903;SDS011;23738;50.422;18.758;2022-11-18T16:14:19;30.20;;;17.03;;
37903;SDS011;23738;50.422;18.758;2022-11-18T16:16:47;26.10;;;15.77;;
37903;SDS011;23738;50.422;18.758;2022-11-18T16:19:16;29.40;;;17.80;;
37903;SDS011;23738;50.422;18.758;2022-11-18T16:21:45;31.73;;;17.37;;
37903;SDS011;23738;50.422;18.758;2022-11-18T16:24:14;30.93;;;18.57;;
37903;SDS011;23738;50.422;18.758;2022-11-18T16:26:45;26.70;;;15.57;;
37903;SDS011;23738;50.422;18.758;2022-11-18T16:29:12;31.67;;;18.43;;
37903;SDS011;23738;50.422;18.758;2022-11-18T16:31:40;30.80;;;17.33;;
37903;SDS011;23738;50.422;18.758;2022-11-18T16:36:46;27.20;;;15.77;;
37903;SDS011;23738;50.422;18.758;2022-11-18T16:39:15;31.13;;;19.60;;
37903;SDS011;23738;50.422;18.758;2022-11-18T16:41:44;26.53;;;16.13;;
37903;SDS011;23738;50.422;18.758;2022-11-18T16:44:12;31.43;;;18.57;;
37903;SDS011;23738;50.422;18.758;2022-11-18T16:46:40;29.53;;;16.60;;
37903;SDS011;23738;50.422;18.758;2022-11-18T16:49:10;18.13;;;14.30;;